sensor_id;sensor_type;location;lat;lon;timestamp;temperature;humidity
17726;DHT22;8983;53.156;17.960;2023-02-20T00:00:54;2.10;99.90
17726;DHT22;8983;53.156;17.960;2023-02-20T00:03:22;2.00;99.90
17726;DHT22;8983;53.156;17.960;2023-02-20T00:05:51;2.10;99.90
17726;DHT22;8983;53.156;17.960;2023-02-20T00:08:19;1.80;99.90
17726;DHT22;8983;53.156;17.960;2023-02-20T00:10:48;2.00;99.90
17726;DHT22;8983;53.156;17.960;2023-02-20T00:13:18;2.00;99.90
17726;DHT22;8983;53.156;17.960;2023-02-20T00:15:46;2.10;99.90
17726;DHT22;8983;53.156;17.960;2023-02-20T00:18:14;2.10;99.90
17726;DHT22;8983;53.156;17.960;2023-02-20T00:20:42;2.10;99.90
17726;DHT22;8983;53.156;17.960;2023-02-20T00:23:10;2.10;99.90
17726;DHT22;8983;53.156;17.960;2023-02-20T00:25:37;2.10;99.90
17726;DHT22;8983;53.156;17.960;2023-02-20T00:28:05;2.10;99.90
17726;DHT22;8983;53.156;17.960;2023-02-20T00:30:35;2.10;99.90
17726;DHT22;8983;53.156;17.960;2023-02-20T00:33:03;2.10;99.90
17726;DHT22;8983;53.156;17.960;2023-02-20T00:35:31;2.10;99.90
17726;DHT22;8983;53.156;17.960;2023-02-20T00:37:59;2.10;99.90
17726;DHT22;8983;53.156;17.960;2023-02-20T00:40:27;2.20;99.90
17726;DHT22;8983;53.156;17.960;2023-02-20T00:42:54;2.20;99.90
17726;DHT22;8983;53.156;17.960;2023-02-20T00:45:22;2.20;99.90
17726;DHT22;8983;53.156;17.960;2023-02-20T00:47:52;2.20;99.90
17726;DHT22;8983;53.156;17.960;2023-02-20T00:50:20;2.20;99.90
17726;DHT22;8983;53.156;17.960;2023-02-20T00:52:48;2.20;99.90
17726;DHT22;8983;53.156;17.960;2023-02-20T00:55:16;2.20;99.90
17726;DHT22;8983;53.156;17.960;2023-02-20T00:57:44;2.20;99.90
17726;DHT22;8983;53.156;17.960;2023-02-20T01:00:17;2.20;99.90
17726;DHT22;8983;53.156;17.960;2023-02-20T01:02:45;2.20;99.90
17726;DHT22;8983;53.156;17.960;2023-02-20T01:05:15;2.20;99.90
17726;DHT22;8983;53.156;17.960;2023-02-20T01:07:43;2.20;99.90
17726;DHT22;8983;53.156;17.960;2023-02-20T01:10:11;2.20;99.90
17726;DHT22;8983;53.156;17.960;2023-02-20T01:12:39;2.20;99.90
17726;DHT22;8983;53.156;17.960;2023-02-20T01:15:09;2.10;99.90
17726;DHT22;8983;53.156;17.960;2023-02-20T01:17:37;2.10;99.90
17726;DHT22;8983;53.156;17.960;2023-02-20T01:20:07;2.10;99.90
17726;DHT22;8983;53.156;17.960;2023-02-20T01:22:36;2.10;99.90
17726;DHT22;8983;53.156;17.960;2023-02-20T01:25:05;1.50;99.90
17726;DHT22;8983;53.156;17.960;2023-02-20T01:27:33;2.10;99.90
17726;DHT22;8983;53.156;17.960;2023-02-20T01:30:01;2.00;99.90
17726;DHT22;8983;53.156;17.960;2023-02-20T01:32:29;2.00;99.90
17726;DHT22;8983;53.156;17.960;2023-02-20T01:34:57;2.00;99.90
17726;DHT22;8983;53.156;17.960;2023-02-20T01:37:25;2.00;99.90
17726;DHT22;8983;53.156;17.960;2023-02-20T01:39:54;1.90;99.90
17726;DHT22;8983;53.156;17.960;2023-02-20T01:42:23;2.00;99.90
17726;DHT22;8983;53.156;17.960;2023-02-20T01:44:52;2.00;99.90
17726;DHT22;8983;53.156;17.960;2023-02-20T01:47:22;1.90;99.90
17726;DHT22;8983;53.156;17.960;2023-02-20T01:49:51;2.00;99.90
17726;DHT22;8983;53.156;17.960;2023-02-20T01:52:24;2.00;99.90
17726;DHT22;8983;53.156;17.960;2023-02-20T01:54:58;2.00;99.90
17726;DHT22;8983;53.156;17.960;2023-02-20T01:57:29;2.00;99.90
17726;DHT22;8983;53.156;17.960;2023-02-20T02:00:02;2.00;99.90
17726;DHT22;8983;53.156;17.960;2023-02-20T02:02:32;1.90;99.90
17726;DHT22;8983;53.156;17.960;2023-02-20T02:05:02;1.90;99.90
17726;DHT22;8983;53.156;17.960;2023-02-20T02:07:30;1.90;99.90
17726;DHT22;8983;53.156;17.960;2023-02-20T02:10:02;1.90;99.90
17726;DHT22;8983;53.156;17.960;2023-02-20T02:12:30;1.90;99.90
17726;DHT22;8983;53.156;17.960;2023-02-20T02:14:58;1.90;99.90
17726;DHT22;8983;53.156;17.960;2023-02-20T02:17:57;1.90;99.90
17726;DHT22;8983;53.156;17.960;2023-02-20T02:30:17;1.90;99.90
17726;DHT22;8983;53.156;17.960;2023-02-20T02:33:18;1.90;99.90
17726;DHT22;8983;53.156;17.960;2023-02-20T02:36:21;1.90;99.90
17726;DHT22;8983;53.156;17.960;2023-02-20T02:38:55;1.90;99.90
17726;DHT22;8983;53.156;17.960;2023-02-20T02:41:34;1.90;99.90
17726;DHT22;8983;53.156;17.960;2023-02-20T02:44:09;1.90;99.90
17726;DHT22;8983;53.156;17.960;2023-02-20T02:46:40;2.00;99.90
17726;DHT22;8983;53.156;17.960;2023-02-20T02:49:16;2.00;99.90
17726;DHT22;8983;53.156;17.960;2023-02-20T02:51:48;2.00;99.90
17726;DHT22;8983;53.156;17.960;2023-02-20T02:54:19;2.00;99.90
17726;DHT22;8983;53.156;17.960;2023-02-20T02:56:52;2.10;99.90
17726;DHT22;8983;53.156;17.960;2023-02-20T02:59:24;2.10;99.90
17726;DHT22;8983;53.156;17.960;2023-02-20T03:01:56;2.10;99.90
17726;DHT22;8983;53.156;17.960;2023-02-20T03:04:27;2.10;99.90
17726;DHT22;8983;53.156;17.960;2023-02-20T03:07:01;2.20;99.90
17726;DHT22;8983;53.156;17.960;2023-02-20T03:09:32;2.20;99.90
17726;DHT22;8983;53.156;17.960;2023-02-20T03:12:02;2.20;99.90
17726;DHT22;8983;53.156;17.960;2023-02-20T03:14:34;2.20;99.90
17726;DHT22;8983;53.156;17.960;2023-02-20T03:17:27;2.20;99.90
17726;DHT22;8983;53.156;17.960;2023-02-20T03:19:58;2.20;99.90
17726;DHT22;8983;53.156;17.960;2023-02-20T03:22:29;2.30;99.90
17726;DHT22;8983;53.156;17.960;2023-02-20T03:25:03;4.80;99.90
17726;DHT22;8983;53.156;17.960;2023-02-20T03:27:35;2.30;99.90
17726;DHT22;8983;53.156;17.960;2023-02-20T03:30:08;2.30;99.90
17726;DHT22;8983;53.156;17.960;2023-02-20T03:32:39;2.30;99.90
17726;DHT22;8983;53.156;17.960;2023-02-20T03:35:26;2.30;99.90
17726;DHT22;8983;53.156;17.960;2023-02-20T03:38:16;2.30;99.90
17726;DHT22;8983;53.156;17.960;2023-02-20T03:41:03;2.30;99.90
17726;DHT22;8983;53.156;17.960;2023-02-20T03:43:51;2.30;99.90
17726;DHT22;8983;53.156;17.960;2023-02-20T03:46:21;2.30;99.90
17726;DHT22;8983;53.156;17.960;2023-02-20T03:48:54;2.40;99.90
17726;DHT22;8983;53.156;17.960;2023-02-20T03:51:23;2.40;99.90
17726;DHT22;8983;53.156;17.960;2023-02-20T03:53:53;2.40;99.90
17726;DHT22;8983;53.156;17.960;2023-02-20T03:56:25;2.40;99.90
17726;DHT22;8983;53.156;17.960;2023-02-20T03:59:00;2.40;99.90
17726;DHT22;8983;53.156;17.960;2023-02-20T04:01:31;2.40;99.90
17726;DHT22;8983;53.156;17.960;2023-02-20T04:04:02;2.40;99.90
17726;DHT22;8983;53.156;17.960;2023-02-20T04:06:33;2.40;99.90
17726;DHT22;8983;53.156;17.960;2023-02-20T04:09:05;2.40;99.90
17726;DHT22;8983;53.156;17.960;2023-02-20T04:11:38;2.40;99.90
17726;DHT22;8983;53.156;17.960;2023-02-20T04:14:07;2.40;99.90
17726;DHT22;8983;53.156;17.960;2023-02-20T04:16:48;2.40;99.90
17726;DHT22;8983;53.156;17.960;2023-02-20T04:19:17;2.40;99.90
17726;DHT22;8983;53.156;17.960;2023-02-20T04:21:48;2.40;99.90
17726;DHT22;8983;53.156;17.960;2023-02-20T04:24:21;2.50;99.90
17726;DHT22;8983;53.156;17.960;2023-02-20T04:26:50;2.50;99.90
17726;DHT22;8983;53.156;17.960;2023-02-20T04:29:18;2.50;99.90
17726;DHT22;8983;53.156;17.960;2023-02-20T04:31:46;2.50;99.90
17726;DHT22;8983;53.156;17.960;2023-02-20T04:34:14;2.60;99.90
17726;DHT22;8983;53.156;17.960;2023-02-20T04:36:42;2.60;99.90
17726;DHT22;8983;53.156;17.960;2023-02-20T04:39:10;2.60;99.90
17726;DHT22;8983;53.156;17.960;2023-02-20T04:41:39;2.60;99.90
17726;DHT22;8983;53.156;17.960;2023-02-20T04:44:07;2.60;99.90
17726;DHT22;8983;53.156;17.960;2023-02-20T04:46:52;2.70;99.90
17726;DHT22;8983;53.156;17.960;2023-02-20T04:49:20;2.70;99.90
17726;DHT22;8983;53.156;17.960;2023-02-20T04:51:48;2.70;99.90
17726;DHT22;8983;53.156;17.960;2023-02-20T04:54:16;2.70;99.90
17726;DHT22;8983;53.156;17.960;2023-02-20T04:56:46;2.80;99.90
17726;DHT22;8983;53.156;17.960;2023-02-20T04:59:14;2.70;99.90
17726;DHT22;8983;53.156;17.960;2023-02-20T05:01:42;2.90;99.90
17726;DHT22;8983;53.156;17.960;2023-02-20T05:04:13;2.80;99.90
17726;DHT22;8983;53.156;17.960;2023-02-20T05:06:42;2.80;99.90
17726;DHT22;8983;53.156;17.960;2023-02-20T05:09:10;2.80;99.90
17726;DHT22;8983;53.156;17.960;2023-02-20T05:11:38;2.80;99.90
17726;DHT22;8983;53.156;17.960;2023-02-20T05:14:07;2.80;99.90
17726;DHT22;8983;53.156;17.960;2023-02-20T05:16:36;2.80;99.90
17726;DHT22;8983;53.156;17.960;2023-02-20T05:19:05;2.80;99.90
17726;DHT22;8983;53.156;17.960;2023-02-20T05:21:33;2.80;99.90
17726;DHT22;8983;53.156;17.960;2023-02-20T05:24:19;2.80;99.90
17726;DHT22;8983;53.156;17.960;2023-02-20T05:26:48;2.80;99.90
17726;DHT22;8983;53.156;17.960;2023-02-20T05:29:17;2.80;99.90
17726;DHT22;8983;53.156;17.960;2023-02-20T05:31:45;2.80;99.90
17726;DHT22;8983;53.156;17.960;2023-02-20T05:34:13;2.80;99.90
17726;DHT22;8983;53.156;17.960;2023-02-20T05:36:41;2.80;99.90
17726;DHT22;8983;53.156;17.960;2023-02-20T05:39:09;2.80;99.90
17726;DHT22;8983;53.156;17.960;2023-02-20T05:41:37;2.70;99.90
17726;DHT22;8983;53.156;17.960;2023-02-20T05:44:05;2.80;99.90
17726;DHT22;8983;53.156;17.960;2023-02-20T05:46:38;2.80;99.90
17726;DHT22;8983;53.156;17.960;2023-02-20T05:49:07;2.80;99.90
17726;DHT22;8983;53.156;17.960;2023-02-20T05:51:35;2.70;99.90
17726;DHT22;8983;53.156;17.960;2023-02-20T05:54:04;2.80;99.90
17726;DHT22;8983;53.156;17.960;2023-02-20T05:56:32;2.80;99.90
17726;DHT22;8983;53.156;17.960;2023-02-20T05:59:00;2.80;99.90
17726;DHT22;8983;53.156;17.960;2023-02-20T06:01:29;2.70;99.90
17726;DHT22;8983;53.156;17.960;2023-02-20T06:03:59;2.70;99.90
17726;DHT22;8983;53.156;17.960;2023-02-20T06:06:31;2.70;99.90
17726;DHT22;8983;53.156;17.960;2023-02-20T06:08:59;2.60;99.90
17726;DHT22;8983;53.156;17.960;2023-02-20T06:11:28;2.60;99.90
17726;DHT22;8983;53.156;17.960;2023-02-20T06:13:56;2.60;99.90
17726;DHT22;8983;53.156;17.960;2023-02-20T06:16:26;2.60;99.90
17726;DHT22;8983;53.156;17.960;2023-02-20T06:18:55;2.60;99.90
17726;DHT22;8983;53.156;17.960;2023-02-20T06:21:27;2.50;99.90
17726;DHT22;8983;53.156;17.960;2023-02-20T06:23:56;2.50;99.90
17726;DHT22;8983;53.156;17.960;2023-02-20T06:26:24;2.50;99.90
17726;DHT22;8983;53.156;17.960;2023-02-20T06:28:52;2.50;99.90
17726;DHT22;8983;53.156;17.960;2023-02-20T06:31:22;2.40;99.90
17726;DHT22;8983;53.156;17.960;2023-02-20T06:33:50;2.40;99.90
17726;DHT22;8983;53.156;17.960;2023-02-20T06:36:20;2.40;99.90
17726;DHT22;8983;53.156;17.960;2023-02-20T06:38:50;2.40;99.90
17726;DHT22;8983;53.156;17.960;2023-02-20T06:41:18;2.40;99.90
17726;DHT22;8983;53.156;17.960;2023-02-20T06:43:46;2.40;99.90
17726;DHT22;8983;53.156;17.960;2023-02-20T06:46:14;2.30;99.90
17726;DHT22;8983;53.156;17.960;2023-02-20T06:48:43;2.40;99.90
17726;DHT22;8983;53.156;17.960;2023-02-20T06:51:12;2.30;99.90
17726;DHT22;8983;53.156;17.960;2023-02-20T06:53:40;2.30;99.90
17726;DHT22;8983;53.156;17.960;2023-02-20T06:56:10;2.30;99.90
17726;DHT22;8983;53.156;17.960;2023-02-20T06:58:41;2.30;99.90
17726;DHT22;8983;53.156;17.960;2023-02-20T07:01:09;2.40;99.90
17726;DHT22;8983;53.156;17.960;2023-02-20T07:03:37;2.40;99.90
17726;DHT22;8983;53.156;17.960;2023-02-20T07:06:05;2.30;99.90
17726;DHT22;8983;53.156;17.960;2023-02-20T07:08:33;2.30;99.90
17726;DHT22;8983;53.156;17.960;2023-02-20T07:11:01;2.40;99.90
17726;DHT22;8983;53.156;17.960;2023-02-20T07:13:30;2.40;99.90
17726;DHT22;8983;53.156;17.960;2023-02-20T07:15:58;2.40;99.90
17726;DHT22;8983;53.156;17.960;2023-02-20T07:18:26;2.40;99.90
17726;DHT22;8983;53.156;17.960;2023-02-20T07:20:54;2.40;99.90
17726;DHT22;8983;53.156;17.960;2023-02-20T07:23:22;2.40;99.90
17726;DHT22;8983;53.156;17.960;2023-02-20T07:25:50;2.40;99.90
17726;DHT22;8983;53.156;17.960;2023-02-20T07:28:19;2.40;99.90
17726;DHT22;8983;53.156;17.960;2023-02-20T07:30:49;2.50;99.90
17726;DHT22;8983;53.156;17.960;2023-02-20T07:33:19;2.50;99.90
17726;DHT22;8983;53.156;17.960;2023-02-20T07:35:47;2.50;99.90
17726;DHT22;8983;53.156;17.960;2023-02-20T07:38:15;2.50;99.90
17726;DHT22;8983;53.156;17.960;2023-02-20T07:40:43;2.50;99.90
17726;DHT22;8983;53.156;17.960;2023-02-20T07:43:11;2.50;99.90
17726;DHT22;8983;53.156;17.960;2023-02-20T07:45:39;2.50;99.90
17726;DHT22;8983;53.156;17.960;2023-02-20T07:48:09;2.50;99.90
17726;DHT22;8983;53.156;17.960;2023-02-20T07:50:37;2.50;99.90
17726;DHT22;8983;53.156;17.960;2023-02-20T07:53:05;2.50;99.90
17726;DHT22;8983;53.156;17.960;2023-02-20T07:55:33;2.50;99.90
17726;DHT22;8983;53.156;17.960;2023-02-20T07:58:01;2.50;99.90
17726;DHT22;8983;53.156;17.960;2023-02-20T08:00:28;2.60;99.90
17726;DHT22;8983;53.156;17.960;2023-02-20T08:02:56;2.60;99.90
17726;DHT22;8983;53.156;17.960;2023-02-20T08:05:26;2.50;99.90
17726;DHT22;8983;53.156;17.960;2023-02-20T08:08:03;2.60;99.90
17726;DHT22;8983;53.156;17.960;2023-02-20T08:10:31;2.60;99.90
17726;DHT22;8983;53.156;17.960;2023-02-20T08:12:59;2.60;99.90
17726;DHT22;8983;53.156;17.960;2023-02-20T08:15:27;2.50;99.90
17726;DHT22;8983;53.156;17.960;2023-02-20T08:17:55;2.60;99.90
17726;DHT22;8983;53.156;17.960;2023-02-20T08:20:23;2.60;99.90
17726;DHT22;8983;53.156;17.960;2023-02-20T08:22:53;2.60;99.90
17726;DHT22;8983;53.156;17.960;2023-02-20T08:25:21;2.60;99.90
17726;DHT22;8983;53.156;17.960;2023-02-20T08:27:49;2.70;99.90
17726;DHT22;8983;53.156;17.960;2023-02-20T08:30:21;2.70;99.90
17726;DHT22;8983;53.156;17.960;2023-02-20T08:32:50;2.70;99.90
17726;DHT22;8983;53.156;17.960;2023-02-20T08:35:20;2.70;99.90
17726;DHT22;8983;53.156;17.960;2023-02-20T08:37:49;2.70;99.90
17726;DHT22;8983;53.156;17.960;2023-02-20T08:40:18;2.70;99.90
17726;DHT22;8983;53.156;17.960;2023-02-20T08:42:48;2.80;99.90
17726;DHT22;8983;53.156;17.960;2023-02-20T08:45:17;2.80;99.90
17726;DHT22;8983;53.156;17.960;2023-02-20T08:47:45;2.80;99.90
17726;DHT22;8983;53.156;17.960;2023-02-20T08:50:14;2.80;99.90
17726;DHT22;8983;53.156;17.960;2023-02-20T08:52:42;2.80;99.90
17726;DHT22;8983;53.156;17.960;2023-02-20T08:55:11;2.90;99.90
17726;DHT22;8983;53.156;17.960;2023-02-20T08:57:43;2.90;99.90
17726;DHT22;8983;53.156;17.960;2023-02-20T09:00:13;2.90;99.90
17726;DHT22;8983;53.156;17.960;2023-02-20T09:02:41;2.90;99.90
17726;DHT22;8983;53.156;17.960;2023-02-20T09:05:09;2.90;99.90
17726;DHT22;8983;53.156;17.960;2023-02-20T09:07:37;2.90;99.90
17726;DHT22;8983;53.156;17.960;2023-02-20T09:10:06;2.90;99.90
17726;DHT22;8983;53.156;17.960;2023-02-20T09:12:35;3.00;99.90
17726;DHT22;8983;53.156;17.960;2023-02-20T09:15:07;3.00;99.90
17726;DHT22;8983;53.156;17.960;2023-02-20T09:17:36;3.00;99.90
17726;DHT22;8983;53.156;17.960;2023-02-20T09:20:05;3.00;99.90
17726;DHT22;8983;53.156;17.960;2023-02-20T09:22:35;3.00;99.90
17726;DHT22;8983;53.156;17.960;2023-02-20T09:25:04;3.10;99.90
17726;DHT22;8983;53.156;17.960;2023-02-20T09:27:33;3.10;99.90
17726;DHT22;8983;53.156;17.960;2023-02-20T09:30:02;3.10;99.90
17726;DHT22;8983;53.156;17.960;2023-02-20T09:32:32;3.10;99.90
17726;DHT22;8983;53.156;17.960;2023-02-20T09:35:00;3.10;99.90
17726;DHT22;8983;53.156;17.960;2023-02-20T09:37:28;3.20;99.90
17726;DHT22;8983;53.156;17.960;2023-02-20T09:39:55;3.20;99.90
17726;DHT22;8983;53.156;17.960;2023-02-20T09:42:32;3.20;99.90
17726;DHT22;8983;53.156;17.960;2023-02-20T09:45:05;3.20;99.90
17726;DHT22;8983;53.156;17.960;2023-02-20T09:47:52;3.20;99.90
17726;DHT22;8983;53.156;17.960;2023-02-20T09:50:33;3.30;99.90
17726;DHT22;8983;53.156;17.960;2023-02-20T09:53:06;3.30;99.90
17726;DHT22;8983;53.156;17.960;2023-02-20T09:55:42;3.30;99.90
17726;DHT22;8983;53.156;17.960;2023-02-20T09:58:19;3.40;99.90
17726;DHT22;8983;53.156;17.960;2023-02-20T10:00:47;3.40;99.90
17726;DHT22;8983;53.156;17.960;2023-02-20T10:03:23;3.40;99.90
17726;DHT22;8983;53.156;17.960;2023-02-20T10:05:54;3.40;99.90
17726;DHT22;8983;53.156;17.960;2023-02-20T10:08:23;3.50;99.90
17726;DHT22;8983;53.156;17.960;2023-02-20T10:10:57;3.50;99.90
17726;DHT22;8983;53.156;17.960;2023-02-20T10:13:35;3.50;99.90
17726;DHT22;8983;53.156;17.960;2023-02-20T10:16:15;3.50;99.90
17726;DHT22;8983;53.156;17.960;2023-02-20T10:18:53;3.50;99.90
17726;DHT22;8983;53.156;17.960;2023-02-20T10:21:43;3.60;99.90
17726;DHT22;8983;53.156;17.960;2023-02-20T10:24:25;3.60;99.90
17726;DHT22;8983;53.156;17.960;2023-02-20T10:27:03;3.60;99.90
17726;DHT22;8983;53.156;17.960;2023-02-20T10:29:35;4.80;99.90
17726;DHT22;8983;53.156;17.960;2023-02-20T10:32:07;3.70;99.90
17726;DHT22;8983;53.156;17.960;2023-02-20T10:34:41;3.70;99.90
17726;DHT22;8983;53.156;17.960;2023-02-20T10:37:15;3.70;99.90
17726;DHT22;8983;53.156;17.960;2023-02-20T10:39:48;6.30;99.90
17726;DHT22;8983;53.156;17.960;2023-02-20T10:42:21;3.80;99.90
17726;DHT22;8983;53.156;17.960;2023-02-20T10:44:55;3.90;99.90
17726;DHT22;8983;53.156;17.960;2023-02-20T10:47:28;3.90;99.90
17726;DHT22;8983;53.156;17.960;2023-02-20T10:50:02;3.90;99.90
17726;DHT22;8983;53.156;17.960;2023-02-20T10:52:34;4.00;99.90
17726;DHT22;8983;53.156;17.960;2023-02-20T10:55:08;4.00;99.90
17726;DHT22;8983;53.156;17.960;2023-02-20T10:57:40;4.00;99.90
17726;DHT22;8983;53.156;17.960;2023-02-20T11:00:12;4.00;99.90
17726;DHT22;8983;53.156;17.960;2023-02-20T11:02:46;4.10;99.90
17726;DHT22;8983;53.156;17.960;2023-02-20T11:05:19;4.10;99.90
17726;DHT22;8983;53.156;17.960;2023-02-20T11:07:48;4.10;99.90
17726;DHT22;8983;53.156;17.960;2023-02-20T11:10:17;4.10;99.90
17726;DHT22;8983;53.156;17.960;2023-02-20T11:12:48;5.00;99.90
17726;DHT22;8983;53.156;17.960;2023-02-20T11:15:19;4.20;99.90
17726;DHT22;8983;53.156;17.960;2023-02-20T11:17:50;4.30;99.90
17726;DHT22;8983;53.156;17.960;2023-02-20T11:20:45;4.30;99.90
17726;DHT22;8983;53.156;17.960;2023-02-20T11:23:36;4.30;99.90
17726;DHT22;8983;53.156;17.960;2023-02-20T11:26:29;4.30;99.90
17726;DHT22;8983;53.156;17.960;2023-02-20T11:29:04;4.40;99.90
17726;DHT22;8983;53.156;17.960;2023-02-20T11:31:33;4.40;99.90
17726;DHT22;8983;53.156;17.960;2023-02-20T11:34:03;4.40;99.90
17726;DHT22;8983;53.156;17.960;2023-02-20T11:36:37;4.40;99.90
17726;DHT22;8983;53.156;17.960;2023-02-20T11:39:19;4.50;99.90
17726;DHT22;8983;53.156;17.960;2023-02-20T11:41:49;4.50;99.90
17726;DHT22;8983;53.156;17.960;2023-02-20T11:44:23;4.50;99.90
17726;DHT22;8983;53.156;17.960;2023-02-20T11:47:16;4.60;99.90
17726;DHT22;8983;53.156;17.960;2023-02-20T11:49:44;6.10;99.90
17726;DHT22;8983;53.156;17.960;2023-02-20T11:52:18;4.50;99.90
17726;DHT22;8983;53.156;17.960;2023-02-20T11:54:47;4.60;99.90
17726;DHT22;8983;53.156;17.960;2023-02-20T11:57:22;6.40;99.90
17726;DHT22;8983;53.156;17.960;2023-02-20T12:00:08;4.70;99.90
17726;DHT22;8983;53.156;17.960;2023-02-20T12:02:47;4.80;99.90
17726;DHT22;8983;53.156;17.960;2023-02-20T12:05:15;4.80;99.90
17726;DHT22;8983;53.156;17.960;2023-02-20T12:07:54;4.80;99.90
17726;DHT22;8983;53.156;17.960;2023-02-20T12:10:34;5.60;99.90
17726;DHT22;8983;53.156;17.960;2023-02-20T12:13:04;5.00;99.90
17726;DHT22;8983;53.156;17.960;2023-02-20T12:15:32;5.00;99.90
17726;DHT22;8983;53.156;17.960;2023-02-20T12:20:55;5.00;99.90
17726;DHT22;8983;53.156;17.960;2023-02-20T12:23:34;5.10;99.90
17726;DHT22;8983;53.156;17.960;2023-02-20T12:26:18;5.10;99.90
17726;DHT22;8983;53.156;17.960;2023-02-20T12:28:59;5.10;99.90
17726;DHT22;8983;53.156;17.960;2023-02-20T12:31:43;5.10;99.90
17726;DHT22;8983;53.156;17.960;2023-02-20T12:34:24;5.10;99.90
17726;DHT22;8983;53.156;17.960;2023-02-20T12:37:03;5.10;99.90
17726;DHT22;8983;53.156;17.960;2023-02-20T12:39:44;5.10;99.90
17726;DHT22;8983;53.156;17.960;2023-02-20T12:42:25;5.10;99.90
17726;DHT22;8983;53.156;17.960;2023-02-20T12:47:45;5.10;99.90
17726;DHT22;8983;53.156;17.960;2023-02-20T12:50:43;5.10;99.90
17726;DHT22;8983;53.156;17.960;2023-02-20T12:53:21;5.20;99.90
17726;DHT22;8983;53.156;17.960;2023-02-20T12:56:05;5.10;99.90
17726;DHT22;8983;53.156;17.960;2023-02-20T12:58:46;5.20;99.90
17726;DHT22;8983;53.156;17.960;2023-02-20T13:01:18;5.00;99.90
17726;DHT22;8983;53.156;17.960;2023-02-20T13:04:09;5.20;99.90
17726;DHT22;8983;53.156;17.960;2023-02-20T13:06:45;5.40;99.90
17726;DHT22;8983;53.156;17.960;2023-02-20T13:09:20;5.20;99.90
17726;DHT22;8983;53.156;17.960;2023-02-20T13:11:54;5.20;99.90
17726;DHT22;8983;53.156;17.960;2023-02-20T13:14:30;5.20;99.90
17726;DHT22;8983;53.156;17.960;2023-02-20T13:17:10;5.50;99.90
17726;DHT22;8983;53.156;17.960;2023-02-20T13:19:48;5.30;99.90
17726;DHT22;8983;53.156;17.960;2023-02-20T13:22:20;5.20;99.90
17726;DHT22;8983;53.156;17.960;2023-02-20T13:24:48;5.30;99.90
17726;DHT22;8983;53.156;17.960;2023-02-20T13:27:28;5.30;99.90
17726;DHT22;8983;53.156;17.960;2023-02-20T13:29:59;5.30;99.90
17726;DHT22;8983;53.156;17.960;2023-02-20T13:32:29;6.80;99.90
17726;DHT22;8983;53.156;17.960;2023-02-20T13:35:32;5.30;99.90
17726;DHT22;8983;53.156;17.960;2023-02-20T13:38:09;5.30;99.90
17726;DHT22;8983;53.156;17.960;2023-02-20T13:40:40;5.30;99.90
17726;DHT22;8983;53.156;17.960;2023-02-20T13:43:27;5.40;99.90
17726;DHT22;8983;53.156;17.960;2023-02-20T13:46:14;5.40;99.90
17726;DHT22;8983;53.156;17.960;2023-02-20T13:48:49;5.40;99.90
17726;DHT22;8983;53.156;17.960;2023-02-20T13:51:34;5.80;99.90
17726;DHT22;8983;53.156;17.960;2023-02-20T13:54:21;5.40;99.90
17726;DHT22;8983;53.156;17.960;2023-02-20T13:56:53;5.40;99.90
17726;DHT22;8983;53.156;17.960;2023-02-20T13:59:27;5.10;99.90
17726;DHT22;8983;53.156;17.960;2023-02-20T14:01:57;5.50;99.90
17726;DHT22;8983;53.156;17.960;2023-02-20T14:04:25;5.50;99.90
17726;DHT22;8983;53.156;17.960;2023-02-20T14:06:55;5.50;99.90
17726;DHT22;8983;53.156;17.960;2023-02-20T14:09:26;5.70;99.90
17726;DHT22;8983;53.156;17.960;2023-02-20T14:12:05;5.50;99.90
17726;DHT22;8983;53.156;17.960;2023-02-20T14:14:40;5.60;99.90
17726;DHT22;8983;53.156;17.960;2023-02-20T14:17:13;5.60;99.90
17726;DHT22;8983;53.156;17.960;2023-02-20T14:19:44;5.60;99.90
17726;DHT22;8983;53.156;17.960;2023-02-20T14:22:20;5.60;99.90
17726;DHT22;8983;53.156;17.960;2023-02-20T14:27:43;5.70;99.90
17726;DHT22;8983;53.156;17.960;2023-02-20T14:30:15;5.70;99.90
17726;DHT22;8983;53.156;17.960;2023-02-20T14:32:45;5.70;99.90
17726;DHT22;8983;53.156;17.960;2023-02-20T14:35:33;5.70;99.90
17726;DHT22;8983;53.156;17.960;2023-02-20T14:38:15;5.50;99.90
17726;DHT22;8983;53.156;17.960;2023-02-20T14:40:47;5.80;99.90
17726;DHT22;8983;53.156;17.960;2023-02-20T14:43:18;5.80;99.90
17726;DHT22;8983;53.156;17.960;2023-02-20T14:45:58;5.80;99.90
17726;DHT22;8983;53.156;17.960;2023-02-20T14:48:28;5.70;99.90
17726;DHT22;8983;53.156;17.960;2023-02-20T14:51:13;6.00;99.90
17726;DHT22;8983;53.156;17.960;2023-02-20T14:53:42;5.90;99.90
17726;DHT22;8983;53.156;17.960;2023-02-20T14:56:12;6.00;99.90
17726;DHT22;8983;53.156;17.960;2023-02-20T14:58:41;6.00;99.90
17726;DHT22;8983;53.156;17.960;2023-02-20T15:01:27;6.00;99.90
17726;DHT22;8983;53.156;17.960;2023-02-20T15:03:59;6.10;99.90
17726;DHT22;8983;53.156;17.960;2023-02-20T15:06:28;6.30;99.90
17726;DHT22;8983;53.156;17.960;2023-02-20T15:08:57;5.80;99.90
17726;DHT22;8983;53.156;17.960;2023-02-20T15:11:47;6.20;99.90
17726;DHT22;8983;53.156;17.960;2023-02-20T15:14:20;6.80;99.90
17726;DHT22;8983;53.156;17.960;2023-02-20T15:17:13;6.40;99.90
17726;DHT22;8983;53.156;17.960;2023-02-20T15:19:45;6.30;99.90
17726;DHT22;8983;53.156;17.960;2023-02-20T15:22:23;6.30;99.90
17726;DHT22;8983;53.156;17.960;2023-02-20T15:24:51;6.40;99.90
17726;DHT22;8983;53.156;17.960;2023-02-20T15:27:21;6.30;99.90
17726;DHT22;8983;53.156;17.960;2023-02-20T15:30:10;6.50;99.90
17726;DHT22;8983;53.156;17.960;2023-02-20T15:32:42;6.90;99.90
17726;DHT22;8983;53.156;17.960;2023-02-20T15:35:14;6.40;99.90
17726;DHT22;8983;53.156;17.960;2023-02-20T15:37:44;6.30;99.90
17726;DHT22;8983;53.156;17.960;2023-02-20T15:40:19;6.30;99.90
17726;DHT22;8983;53.156;17.960;2023-02-20T15:42:48;6.30;99.90
17726;DHT22;8983;53.156;17.960;2023-02-20T15:45:23;6.20;99.90
17726;DHT22;8983;53.156;17.960;2023-02-20T15:47:53;6.30;99.90
17726;DHT22;8983;53.156;17.960;2023-02-20T15:50:21;6.40;99.90
17726;DHT22;8983;53.156;17.960;2023-02-20T15:52:50;6.30;99.90
17726;DHT22;8983;53.156;17.960;2023-02-20T15:55:19;6.20;99.90
17726;DHT22;8983;53.156;17.960;2023-02-20T15:57:48;6.20;99.90
17726;DHT22;8983;53.156;17.960;2023-02-20T16:00:21;6.30;99.90
17726;DHT22;8983;53.156;17.960;2023-02-20T16:02:52;6.40;99.90
17726;DHT22;8983;53.156;17.960;2023-02-20T16:05:22;6.30;99.90
17726;DHT22;8983;53.156;17.960;2023-02-20T16:07:50;6.40;99.90
17726;DHT22;8983;53.156;17.960;2023-02-20T16:10:20;6.40;99.90
17726;DHT22;8983;53.156;17.960;2023-02-20T16:12:51;6.40;99.90
17726;DHT22;8983;53.156;17.960;2023-02-20T16:15:20;7.10;99.90
17726;DHT22;8983;53.156;17.960;2023-02-20T16:17:49;6.40;99.90
17726;DHT22;8983;53.156;17.960;2023-02-20T16:20:20;7.10;99.90
17726;DHT22;8983;53.156;17.960;2023-02-20T16:22:48;6.30;99.90
17726;DHT22;8983;53.156;17.960;2023-02-20T16:25:18;6.30;99.90
17726;DHT22;8983;53.156;17.960;2023-02-20T16:27:47;6.30;99.90
17726;DHT22;8983;53.156;17.960;2023-02-20T16:30:20;6.40;99.90
17726;DHT22;8983;53.156;17.960;2023-02-20T16:32:59;6.30;99.90
17726;DHT22;8983;53.156;17.960;2023-02-20T16:35:28;7.40;99.90